createdAt,value
2018-02-18T00:02:15.349Z,102.13
2018-02-18T00:04:43.666Z,110.40
2018-02-18T00:07:11.948Z,261.63
2018-02-18T00:09:40.270Z,72.22
2018-02-18T00:12:08.512Z,75.70
2018-02-18T00:14:37.764Z,107.60
2018-02-18T00:17:06.071Z,79.17
2018-02-18T00:19:34.377Z,153.47
2018-02-18T00:22:02.680Z,74.23
2018-02-18T00:24:30.950Z,88.40
2018-02-18T00:26:59.250Z,219.00
2018-02-18T00:29:27.656Z,71.47
2018-02-18T00:31:56.010Z,48.93
2018-02-18T00:34:24.294Z,88.93
2018-02-18T00:36:52.587Z,173.63
2018-02-18T00:39:20.864Z,117.97
2018-02-18T00:41:49.166Z,131.07
2018-02-18T00:44:17.423Z,92.07
2018-02-18T00:46:45.728Z,75.03
2018-02-18T00:49:14.016Z,44.03
2018-02-18T00:51:42.328Z,66.70
2018-02-18T00:54:10.629Z,67.73
2018-02-18T00:56:38.906Z,85.77
2018-02-18T00:59:07.189Z,25.83
2018-02-18T01:01:35.453Z,98.40
2018-02-18T01:04:03.762Z,43.30
2018-02-18T01:06:32.053Z,37.83
2018-02-18T01:09:00.359Z,57.93
2018-02-18T01:11:28.672Z,66.95
2018-02-18T01:13:57.011Z,56.17
2018-02-18T01:16:25.328Z,34.07
2018-02-18T01:18:53.604Z,58.63
2018-02-18T01:21:21.926Z,49.60
2018-02-18T01:23:50.226Z,53.40
2018-02-18T01:26:18.546Z,87.53
2018-02-18T01:28:46.812Z,62.60
2018-02-18T01:31:15.143Z,66.87
2018-02-18T01:33:43.396Z,78.67
2018-02-18T01:36:11.701Z,85.22
2018-02-18T01:38:40.005Z,123.33
2018-02-18T01:41:08.299Z,87.73
2018-02-18T01:43:36.560Z,79.67
2018-02-18T01:46:05.217Z,110.05
2018-02-18T01:48:33.522Z,65.90
2018-02-18T01:51:01.872Z,76.87
2018-02-18T01:53:30.142Z,44.57
2018-02-18T01:55:58.500Z,50.83
2018-02-18T01:58:26.796Z,67.90
2018-02-18T02:00:55.111Z,95.60
2018-02-18T02:03:23.384Z,93.87
2018-02-18T02:05:51.676Z,52.20
2018-02-18T02:08:19.979Z,69.93
2018-02-18T02:10:48.258Z,34.47
2018-02-18T02:13:16.566Z,51.03
2018-02-18T02:15:45.096Z,76.93
2018-02-18T02:18:13.420Z,79.50
2018-02-18T02:20:41.707Z,67.27
2018-02-18T02:23:10.003Z,63.60
2018-02-18T02:25:38.303Z,41.27
2018-02-18T02:28:06.628Z,65.25
2018-02-18T02:30:34.898Z,27.07
2018-02-18T02:33:03.192Z,197.27
2018-02-18T02:35:31.632Z,56.37
2018-02-18T02:37:59.902Z,99.37
2018-02-18T02:40:28.369Z,60.92
2018-02-18T02:42:56.660Z,31.53
2018-02-18T02:45:24.996Z,26.20
2018-02-18T02:47:53.263Z,25.80
2018-02-18T02:50:21.556Z,24.25
2018-02-18T02:52:49.852Z,20.30
2018-02-18T02:55:18.171Z,33.63
2018-02-18T02:57:46.457Z,17.70
2018-02-18T03:00:14.755Z,19.47
2018-02-18T03:02:43.056Z,28.00
2018-02-18T03:05:11.342Z,21.70
2018-02-18T03:07:39.617Z,22.60
2018-02-18T03:10:07.932Z,21.70
2018-02-18T03:12:36.207Z,49.90
2018-02-18T03:15:05.134Z,38.57
2018-02-18T03:17:33.416Z,51.13
2018-02-18T03:20:01.707Z,26.75
2018-02-18T03:22:30.037Z,25.17
2018-02-18T03:24:58.327Z,29.70
2018-02-18T03:27:26.627Z,25.13
2018-02-18T03:29:54.915Z,55.03
2018-02-18T03:32:23.208Z,52.40
2018-02-18T03:34:51.522Z,36.17
2018-02-18T03:37:19.828Z,26.33
2018-02-18T03:39:48.099Z,20.10
2018-02-18T03:42:16.382Z,58.80
2018-02-18T03:44:44.656Z,60.20
2018-02-18T03:47:12.967Z,46.90
2018-02-18T03:49:41.565Z,29.07
2018-02-18T03:52:09.834Z,55.97
2018-02-18T03:54:38.137Z,23.50
2018-02-18T03:57:06.426Z,26.33
2018-02-18T03:59:34.738Z,29.93
2018-02-18T04:02:03.082Z,52.33
2018-02-18T04:04:31.379Z,65.53
2018-02-18T04:06:59.645Z,42.57
2018-02-18T04:09:27.932Z,74.20
2018-02-18T04:11:56.200Z,58.77
2018-02-18T04:14:24.499Z,78.67
2018-02-18T04:16:52.768Z,33.70
2018-02-18T04:19:21.062Z,58.53
2018-02-18T04:21:49.328Z,27.45
2018-02-18T04:24:18.356Z,29.00
2018-02-18T04:26:46.651Z,49.13
2018-02-18T04:29:14.919Z,22.53
2018-02-18T04:31:43.216Z,22.02
2018-02-18T04:34:11.489Z,20.12
2018-02-18T04:36:39.779Z,28.15
2018-02-18T04:39:08.056Z,68.47
2018-02-18T04:41:36.356Z,66.37
2018-02-18T04:44:05.455Z,23.95
2018-02-18T04:46:33.760Z,34.07
2018-02-18T04:49:02.071Z,22.70
2018-02-18T04:51:30.356Z,25.43
2018-02-18T04:53:58.708Z,20.85
2018-02-18T04:56:27.000Z,20.17
2018-02-18T04:58:55.331Z,18.35
2018-02-18T05:01:23.592Z,19.47
2018-02-18T05:03:51.879Z,17.20
2018-02-18T05:06:20.164Z,18.33
2018-02-18T05:08:48.466Z,19.27
2018-02-18T05:11:16.728Z,22.40
2018-02-18T05:13:45.016Z,17.53
2018-02-18T05:16:13.291Z,19.83
2018-02-18T05:18:41.582Z,30.73
2018-02-18T05:21:09.845Z,39.33
2018-02-18T05:23:38.152Z,23.83
2018-02-18T05:26:06.488Z,14.10
2018-02-18T05:28:35.606Z,19.30
2018-02-18T05:31:03.904Z,19.00
2018-02-18T05:33:32.178Z,14.03
2018-02-18T05:36:00.464Z,12.50
2018-02-18T05:38:28.720Z,14.40
2018-02-18T05:40:57.021Z,14.23
2018-02-18T05:43:25.272Z,13.70
2018-02-18T05:45:53.579Z,12.93
2018-02-18T05:48:21.838Z,14.10
2018-02-18T05:50:50.099Z,15.20
2018-02-18T05:53:18.391Z,15.60
2018-02-18T05:55:46.654Z,14.77
2018-02-18T05:58:14.977Z,13.77
2018-02-18T06:00:43.244Z,12.37
2018-02-18T06:03:11.531Z,14.93
2018-02-18T06:05:39.791Z,13.77
2018-02-18T06:08:08.099Z,10.90
2018-02-18T06:10:36.380Z,13.13
2018-02-18T06:13:05.020Z,11.95
2018-02-18T06:15:33.292Z,11.43
2018-02-18T06:18:01.568Z,12.32
2018-02-18T06:20:29.860Z,13.47
2018-02-18T06:22:58.143Z,10.82
2018-02-18T06:25:26.481Z,14.40
2018-02-18T06:27:54.734Z,12.00
2018-02-18T06:30:22.995Z,11.45
2018-02-18T06:32:51.292Z,12.87
2018-02-18T06:35:19.582Z,13.57
2018-02-18T06:37:47.840Z,14.50
2018-02-18T06:40:16.309Z,12.00
2018-02-18T06:42:44.597Z,14.53
2018-02-18T06:45:12.862Z,10.77
2018-02-18T06:47:41.168Z,13.77
2018-02-18T06:50:09.442Z,10.57
2018-02-18T06:52:37.740Z,13.83
2018-02-18T06:55:06.041Z,12.10
2018-02-18T06:57:34.315Z,10.60
2018-02-18T07:00:02.607Z,10.73
2018-02-18T07:02:30.918Z,14.07
2018-02-18T07:04:59.223Z,11.63
2018-02-18T07:07:27.531Z,10.93
2018-02-18T07:09:55.827Z,12.90
2018-02-18T07:12:24.098Z,12.53
2018-02-18T07:14:52.707Z,14.57
2018-02-18T07:17:20.982Z,14.00
2018-02-18T07:19:49.287Z,12.13
2018-02-18T07:22:17.552Z,12.75
2018-02-18T07:24:45.824Z,17.13
2018-02-18T07:27:14.163Z,16.67
2018-02-18T07:29:42.453Z,12.63
2018-02-18T07:32:10.753Z,11.80
2018-02-18T07:34:39.032Z,13.63
2018-02-18T07:37:07.315Z,15.53
2018-02-18T07:39:35.587Z,13.10
2018-02-18T07:42:04.963Z,12.23
2018-02-18T07:44:33.248Z,12.27
2018-02-18T07:47:01.540Z,14.30
2018-02-18T07:49:29.113Z,9.77
2018-02-18T07:51:57.212Z,18.03
2018-02-18T07:54:25.595Z,15.17
2018-02-18T07:56:53.877Z,16.60
2018-02-18T07:59:22.179Z,13.60
2018-02-18T08:01:50.475Z,14.83
2018-02-18T08:04:18.784Z,14.18
2018-02-18T08:06:46.354Z,11.52
2018-02-18T08:09:14.444Z,14.13
2018-02-18T08:11:42.719Z,13.63
2018-02-18T08:14:11.030Z,13.07
2018-02-18T08:16:39.305Z,14.90
2018-02-18T08:19:07.616Z,17.20
2018-02-18T08:21:35.879Z,13.73
2018-02-18T08:24:04.994Z,12.75
2018-02-18T08:26:33.251Z,17.13
2018-02-18T08:29:01.556Z,16.67
2018-02-18T08:31:29.852Z,14.50
2018-02-18T08:33:58.165Z,15.27
2018-02-18T08:36:26.442Z,15.57
2018-02-18T08:38:54.723Z,15.13
2018-02-18T08:41:23.014Z,16.50
2018-02-18T08:43:51.284Z,15.93
2018-02-18T08:46:19.625Z,15.80
2018-02-18T08:48:47.901Z,16.12
2018-02-18T08:51:16.203Z,20.63
2018-02-18T08:53:44.480Z,17.43
2018-02-18T08:56:12.804Z,17.67
2018-02-18T08:58:41.108Z,16.40
2018-02-18T09:01:09.373Z,21.13
2018-02-18T09:03:37.682Z,16.00
2018-02-18T09:06:05.962Z,15.00
2018-02-18T09:08:34.257Z,17.07
2018-02-18T09:11:02.523Z,20.90
2018-02-18T09:13:30.871Z,16.67
2018-02-18T09:15:59.163Z,15.03
2018-02-18T09:18:27.704Z,19.60
2018-02-18T09:20:56.076Z,18.23
2018-02-18T09:23:24.368Z,17.40
2018-02-18T09:25:52.728Z,20.20
2018-02-18T09:28:21.130Z,20.52
2018-02-18T09:30:49.486Z,25.00
2018-02-18T09:33:17.919Z,26.02
2018-02-18T09:35:46.292Z,23.30
2018-02-18T09:38:14.569Z,26.08
2018-02-18T09:40:42.892Z,24.23
2018-02-18T09:43:11.281Z,25.27
2018-02-18T09:45:39.596Z,33.33
2018-02-18T09:48:07.852Z,27.23
2018-02-18T09:50:36.134Z,31.33
2018-02-18T09:53:05.152Z,32.83
2018-02-18T09:55:34.152Z,31.30
2018-02-18T09:58:02.451Z,30.80
2018-02-18T10:00:30.762Z,31.90
2018-02-18T10:02:59.039Z,31.87
2018-02-18T10:05:27.352Z,33.90
2018-02-18T10:07:55.669Z,32.97
2018-02-18T10:10:23.972Z,31.07
2018-02-18T10:12:52.288Z,38.63
2018-02-18T10:15:20.559Z,32.70
2018-02-18T10:17:48.868Z,33.90
2018-02-18T10:20:17.190Z,33.57
2018-02-18T10:22:45.485Z,31.97
2018-02-18T10:25:13.851Z,33.50
2018-02-18T10:27:42.089Z,35.27
2018-02-18T10:30:10.384Z,33.53
2018-02-18T10:32:39.487Z,38.50
2018-02-18T10:35:07.831Z,38.20
2018-02-18T10:37:36.076Z,34.87
2018-02-18T10:40:04.387Z,33.13
2018-02-18T10:42:32.688Z,35.83
2018-02-18T10:45:01.008Z,35.57
2018-02-18T10:47:30.079Z,32.03
2018-02-18T10:49:58.353Z,27.33
2018-02-18T10:52:26.697Z,33.83
2018-02-18T10:54:54.934Z,36.10
2018-02-18T10:57:23.205Z,32.87
2018-02-18T10:59:51.544Z,34.33
2018-02-18T11:02:19.839Z,30.70
2018-02-18T11:04:48.127Z,32.70
2018-02-18T11:07:16.396Z,33.60
2018-02-18T11:09:44.776Z,36.40
2018-02-18T11:12:13.048Z,29.30
2018-02-18T11:14:41.296Z,30.63
2018-02-18T11:17:09.623Z,29.40
2018-02-18T11:19:37.936Z,36.37
2018-02-18T11:22:06.228Z,27.90
2018-02-18T11:24:34.499Z,26.83
2018-02-18T11:27:02.793Z,29.53
2018-02-18T11:29:31.056Z,30.77
2018-02-18T11:31:59.350Z,31.67
2018-02-18T11:34:27.737Z,30.10
2018-02-18T11:36:56.020Z,33.70
2018-02-18T11:39:24.300Z,34.27
2018-02-18T11:41:52.643Z,31.60
2018-02-18T11:44:20.918Z,30.07
2018-02-18T11:46:49.216Z,30.33
2018-02-18T11:49:17.536Z,33.80
2018-02-18T11:51:45.844Z,32.20
2018-02-18T11:54:14.160Z,29.63
2018-02-18T11:56:42.437Z,31.23
2018-02-18T11:59:10.808Z,30.62
2018-02-18T12:01:39.108Z,32.23
2018-02-18T12:04:07.468Z,29.23
2018-02-18T12:06:36.579Z,30.45
2018-02-18T12:09:05.361Z,34.65
2018-02-18T12:11:33.741Z,31.70
2018-02-18T12:14:01.985Z,29.43
2018-02-18T12:16:30.347Z,30.33
2018-02-18T12:18:58.656Z,25.83
2018-02-18T12:21:26.939Z,29.07
2018-02-18T12:23:55.246Z,32.83
2018-02-18T12:26:23.580Z,28.83
2018-02-18T12:28:51.847Z,25.88
2018-02-18T12:31:20.192Z,30.60
2018-02-18T12:33:48.520Z,26.12
2018-02-18T12:36:16.814Z,27.65
2018-02-18T12:38:45.071Z,23.03
2018-02-18T12:41:13.453Z,25.67
2018-02-18T12:43:41.732Z,27.60
2018-02-18T12:46:10.032Z,23.87
2018-02-18T12:48:38.349Z,28.60
2018-02-18T12:51:06.639Z,30.40
2018-02-18T12:53:34.952Z,28.17
2018-02-18T12:56:03.249Z,23.23
2018-02-18T12:58:31.586Z,25.30
2018-02-18T13:00:59.875Z,26.43
2018-02-18T13:03:28.232Z,28.57
2018-02-18T13:05:56.549Z,25.50
2018-02-18T13:08:24.958Z,28.70
2018-02-18T13:10:53.266Z,22.43
2018-02-18T13:13:21.559Z,25.17
2018-02-18T13:15:49.899Z,27.43
2018-02-18T13:18:18.277Z,24.83
2018-02-18T13:20:46.625Z,24.97
2018-02-18T13:23:14.953Z,22.93
2018-02-18T13:25:43.292Z,24.40
2018-02-18T13:28:11.658Z,24.00
2018-02-18T13:30:40.427Z,20.83
2018-02-18T13:33:08.890Z,23.58
2018-02-18T13:35:37.241Z,21.73
2018-02-18T13:38:05.670Z,23.98
2018-02-18T13:40:33.989Z,21.63
2018-02-18T13:43:02.334Z,22.98
2018-02-18T13:45:30.730Z,19.37
2018-02-18T13:47:59.866Z,19.07
2018-02-18T13:50:28.160Z,21.90
2018-02-18T13:52:56.484Z,22.63
2018-02-18T13:55:24.816Z,23.27
2018-02-18T13:57:53.093Z,22.97
2018-02-18T14:00:21.405Z,21.20
2018-02-18T14:02:49.692Z,29.77
2018-02-18T14:05:18.011Z,22.98
2018-02-18T14:07:46.330Z,20.03
2018-02-18T14:10:14.631Z,20.25
2018-02-18T14:12:42.951Z,22.37
2018-02-18T14:15:11.268Z,23.70
2018-02-18T14:17:39.544Z,24.10
2018-02-18T14:20:07.899Z,26.83
2018-02-18T14:22:36.248Z,29.73
2018-02-18T14:25:04.572Z,21.03
2018-02-18T14:27:32.909Z,25.10
2018-02-18T14:30:01.261Z,19.47
2018-02-18T14:32:29.999Z,19.53
2018-02-18T14:34:58.323Z,18.87
2018-02-18T14:37:26.655Z,20.23
2018-02-18T14:39:54.928Z,21.00
2018-02-18T14:42:34.904Z,21.03
2018-02-18T14:45:15.048Z,24.07
2018-02-18T14:50:56.468Z,21.33
2018-02-18T14:53:36.563Z,20.13
2018-02-18T14:59:09.699Z,23.87
2018-02-18T15:01:38.084Z,26.07
2018-02-18T15:04:06.941Z,24.43
2018-02-18T15:06:35.227Z,20.20
2018-02-18T15:09:03.611Z,20.20
2018-02-18T15:11:31.899Z,20.12
2018-02-18T15:14:00.197Z,23.30
2018-02-18T15:16:28.498Z,19.00
2018-02-18T15:18:56.849Z,25.30
2018-02-18T15:21:25.157Z,22.70
2018-02-18T15:23:53.436Z,22.13
2018-02-18T15:26:21.740Z,23.37
2018-02-18T15:28:50.027Z,26.13
2018-02-18T15:31:18.323Z,24.67
2018-02-18T15:33:46.660Z,23.87
2018-02-18T15:36:14.989Z,22.70
2018-02-18T15:38:43.268Z,24.73
2018-02-18T15:41:11.620Z,24.40
2018-02-18T15:43:39.924Z,24.83
2018-02-18T15:46:08.220Z,22.85
2018-02-18T15:48:36.518Z,22.87
2018-02-18T15:51:04.822Z,27.57
2018-02-18T15:53:33.149Z,26.90
2018-02-18T15:56:01.428Z,22.87
2018-02-18T15:58:29.759Z,29.85
2018-02-18T16:00:58.056Z,25.00
2018-02-18T16:03:27.222Z,22.63
2018-02-18T16:05:55.500Z,24.67
2018-02-18T16:08:23.865Z,25.53
2018-02-18T16:10:52.175Z,28.57
2018-02-18T16:13:20.446Z,28.52
2018-02-18T16:15:48.813Z,27.37
2018-02-18T16:18:18.131Z,26.00
2018-02-18T16:20:46.459Z,23.33
2018-02-18T16:23:14.876Z,28.42
2018-02-18T16:25:43.242Z,25.60
2018-02-18T16:28:11.728Z,34.43
2018-02-18T16:30:40.138Z,34.20
2018-02-18T16:33:08.414Z,30.50
2018-02-18T16:35:37.671Z,39.83
2018-02-18T16:38:05.996Z,29.33
2018-02-18T16:40:34.319Z,27.90
2018-02-18T16:43:02.920Z,31.40
2018-02-18T16:45:31.209Z,29.97
2018-02-18T16:48:00.307Z,27.87
2018-02-18T16:50:28.601Z,28.03
2018-02-18T16:52:57.363Z,27.60
2018-02-18T16:55:26.402Z,26.70
2018-02-18T16:57:54.741Z,31.50
2018-02-18T17:00:23.001Z,29.10
2018-02-18T17:02:51.922Z,28.57
2018-02-18T17:05:20.283Z,31.10
2018-02-18T17:07:48.593Z,29.30
2018-02-18T17:10:16.894Z,27.20
2018-02-18T17:12:45.203Z,30.53
2018-02-18T17:15:13.485Z,28.77
2018-02-18T17:17:41.803Z,29.60
2018-02-18T17:20:10.116Z,32.10
2018-02-18T17:22:38.458Z,32.77
2018-02-18T17:25:06.875Z,30.27
2018-02-18T17:27:35.151Z,27.77
2018-02-18T17:30:04.083Z,34.40
2018-02-18T17:32:32.490Z,29.20
2018-02-18T17:35:00.811Z,27.47
2018-02-18T17:37:29.148Z,31.50
2018-02-18T17:39:57.460Z,34.47
2018-02-18T17:42:25.756Z,28.47
2018-02-18T17:44:54.100Z,27.33
2018-02-18T17:47:22.485Z,29.47
2018-02-18T17:49:50.972Z,31.20
2018-02-18T17:52:19.336Z,29.63
2018-02-18T17:54:47.687Z,29.20
2018-02-18T17:57:16.091Z,35.53
2018-02-18T17:59:44.377Z,30.30
2018-02-18T18:02:12.717Z,37.50
2018-02-18T18:04:41.085Z,31.23
2018-02-18T18:07:09.347Z,29.30
2018-02-18T18:09:37.698Z,29.10
2018-02-18T18:12:05.960Z,31.97
2018-02-18T18:14:34.257Z,36.20
2018-02-18T18:17:02.523Z,33.27
2018-02-18T18:19:30.807Z,32.20
2018-02-18T18:21:59.080Z,29.07
2018-02-18T18:24:27.372Z,29.77
2018-02-18T18:26:55.631Z,30.03
2018-02-18T18:29:23.920Z,37.90
2018-02-18T18:31:52.242Z,34.87
2018-02-18T18:34:20.521Z,29.60
2018-02-18T18:36:48.822Z,27.07
2018-02-18T18:39:17.161Z,25.10
2018-02-18T18:41:45.474Z,30.60
2018-02-18T18:44:13.756Z,31.00
2018-02-18T18:46:42.055Z,29.97
2018-02-18T18:49:10.339Z,32.57
2018-02-18T18:51:38.735Z,30.57
2018-02-18T18:54:06.990Z,28.40
2018-02-18T18:56:35.293Z,32.27
2018-02-18T18:59:03.922Z,30.10
2018-02-18T19:01:32.198Z,31.67
2018-02-18T19:04:00.487Z,30.30
2018-02-18T19:06:28.749Z,36.30
2018-02-18T19:08:57.040Z,29.93
2018-02-18T19:11:25.316Z,25.87
2018-02-18T19:13:53.600Z,26.83
2018-02-18T19:16:21.861Z,25.03
2018-02-18T19:18:50.193Z,28.33
2018-02-18T19:21:18.509Z,29.87
2018-02-18T19:23:46.780Z,25.60
2018-02-18T19:26:15.060Z,23.37
2018-02-18T19:28:43.356Z,22.30
2018-02-18T19:31:11.658Z,22.07
2018-02-18T19:33:39.941Z,27.63
2018-02-18T19:36:08.188Z,25.17
2018-02-18T19:38:36.439Z,25.93
2018-02-18T19:41:04.737Z,30.27
2018-02-18T19:43:33.000Z,24.27
2018-02-18T19:46:01.321Z,24.30
2018-02-18T19:48:29.588Z,24.77
2018-02-18T19:50:57.891Z,25.87
2018-02-18T19:53:26.199Z,25.13
2018-02-18T19:55:54.491Z,24.50
2018-02-18T19:58:22.770Z,24.13
2018-02-18T20:00:51.078Z,26.53
2018-02-18T20:03:19.350Z,20.83
2018-02-18T20:05:47.686Z,22.43
2018-02-18T20:08:15.971Z,25.73
2018-02-18T20:10:44.256Z,23.20
2018-02-18T20:13:12.559Z,22.73
2018-02-18T20:15:40.816Z,19.47
2018-02-18T20:18:09.117Z,18.10
2018-02-18T20:20:37.403Z,21.60
2018-02-18T20:23:05.694Z,21.07
2018-02-18T20:25:33.980Z,19.17
2018-02-18T20:28:02.280Z,23.13
2018-02-18T20:30:30.587Z,23.87
2018-02-18T20:32:58.865Z,22.93
2018-02-18T20:35:27.124Z,21.67
2018-02-18T20:37:55.422Z,18.23
2018-02-18T20:40:23.683Z,23.87
2018-02-18T20:42:51.971Z,20.17
2018-02-18T20:45:20.233Z,24.17
2018-02-18T20:47:48.530Z,18.03
2018-02-18T20:50:16.820Z,21.20
2018-02-18T20:52:45.129Z,23.60
2018-02-18T20:55:13.415Z,21.27
2018-02-18T20:57:41.700Z,21.27
2018-02-18T21:00:09.981Z,21.37
2018-02-18T21:02:38.348Z,19.13
2018-02-18T21:05:06.612Z,19.30
2018-02-18T21:07:34.872Z,22.10
2018-02-18T21:10:03.182Z,21.77
2018-02-18T21:12:31.451Z,20.50
2018-02-18T21:14:59.905Z,19.57
2018-02-18T21:17:28.246Z,20.23
2018-02-18T21:19:56.582Z,20.50
2018-02-18T21:22:24.860Z,21.83
2018-02-18T21:24:53.198Z,21.13
2018-02-18T21:27:21.511Z,18.63
2018-02-18T21:29:49.774Z,23.60
2018-02-18T21:32:18.068Z,22.80
2018-02-18T21:34:46.336Z,25.67
2018-02-18T21:37:14.944Z,26.63
2018-02-18T21:39:43.203Z,21.63
2018-02-18T21:42:11.500Z,26.20
2018-02-18T21:44:39.761Z,27.17
2018-02-18T21:47:08.054Z,23.03
2018-02-18T21:49:36.325Z,26.63
2018-02-18T21:52:04.606Z,25.33
2018-02-18T21:54:32.862Z,23.83
2018-02-18T21:57:01.171Z,24.97
2018-02-18T21:59:29.480Z,22.40
2018-02-18T22:01:57.771Z,26.30
2018-02-18T22:04:26.100Z,25.53
2018-02-18T22:06:54.367Z,23.03
2018-02-18T22:09:22.684Z,23.70
2018-02-18T22:11:50.925Z,27.40
2018-02-18T22:14:19.212Z,24.77
2018-02-18T22:16:47.496Z,23.40
2018-02-18T22:19:15.779Z,24.30
2018-02-18T22:21:44.067Z,24.33
2018-02-18T22:24:12.360Z,24.73
2018-02-18T22:26:40.643Z,23.03
2018-02-18T22:29:08.937Z,21.37
2018-02-18T22:31:37.204Z,24.77
2018-02-18T22:34:05.483Z,24.90
2018-02-18T22:36:33.750Z,23.73
2018-02-18T22:39:02.032Z,11.37
2018-02-18T22:41:30.295Z,15.60
2018-02-18T22:43:58.587Z,19.33
2018-02-18T22:46:26.896Z,22.97
2018-02-18T22:48:55.175Z,21.50
2018-02-18T22:51:23.481Z,20.23
2018-02-18T22:53:52.086Z,21.20
2018-02-18T22:56:20.383Z,25.50
2018-02-18T22:58:48.704Z,25.43
2018-02-18T23:01:16.936Z,25.90
2018-02-18T23:03:45.289Z,27.60
2018-02-18T23:06:13.504Z,25.33
2018-02-18T23:08:41.813Z,25.48
2018-02-18T23:11:10.128Z,26.30
2018-02-18T23:13:38.406Z,27.30
2018-02-18T23:16:06.724Z,26.67
2018-02-18T23:18:34.987Z,24.90
2018-02-18T23:21:09.324Z,25.18
2018-02-18T23:23:37.568Z,27.37
2018-02-18T23:26:05.851Z,22.17
2018-02-18T23:28:34.205Z,21.87
2018-02-18T23:31:02.538Z,24.10
2018-02-18T23:33:30.874Z,18.33
2018-02-18T23:35:59.136Z,19.20
2018-02-18T23:38:27.466Z,22.33
2018-02-18T23:40:55.748Z,22.30
2018-02-18T23:43:24.086Z,23.20
2018-02-18T23:45:52.394Z,21.17
2018-02-18T23:48:20.726Z,22.20
2018-02-18T23:50:49.103Z,23.90
2018-02-18T23:53:17.384Z,24.40
2018-02-18T23:55:45.756Z,22.50
2018-02-18T23:58:14.037Z,16.57
